Time;durP1;ratioP1;P1;durP2;ratioP2;P2;SDS_P1;SDS_P2;PMS_P1;PMS_P2;Temp;Humidity;BMP_temperature;BMP_pressure;BME280_temperature;BME280_humidity;BME280_pressure;Samples;Min_cycle;Max_cycle;Signal;HPM_P1;HPM_P2
2021/08/31 00:01:21;;;;;;;10.32;9.43;;;15.10;99.90;;;;;;5059746;28;20037;-73
2021/08/31 00:03:46;;;;;;;12.98;9.73;;;15.10;99.90;;;;;;5068909;28;20490;-74
2021/08/31 00:06:12;;;;;;;11.63;8.70;;;15.10;99.90;;;;;;5062317;28;20036;-73
2021/08/31 00:08:37;;;;;;;11.20;8.48;;;15.10;99.90;;;;;;5056577;28;20496;-75
2021/08/31 00:11:03;;;;;;;12.05;9.52;;;15.10;99.90;;;;;;5054044;28;20453;-74
2021/08/31 00:13:28;;;;;;;11.23;8.35;;;15.10;99.90;;;;;;5053679;28;20021;-74
2021/08/31 00:15:54;;;;;;;10.43;9.40;;;15.10;99.90;;;;;;5053964;28;20052;-74
2021/08/31 00:18:19;;;;;;;12.48;9.00;;;15.10;99.90;;;;;;5053971;28;20021;-74
2021/08/31 00:20:45;;;;;;;10.85;9.80;;;15.10;99.90;;;;;;5053531;28;20357;-74
2021/08/31 00:23:12;;;;;;;11.90;9.95;;;15.10;99.90;;;;;;5052618;28;20025;-75
2021/08/31 00:25:37;;;;;;;10.88;9.75;;;15.10;99.90;;;;;;5052116;28;20017;-75
2021/08/31 00:28:03;;;;;;;10.68;9.48;;;15.10;99.90;;;;;;5053258;28;20040;-74
2021/08/31 00:30:28;;;;;;;12.38;10.38;;;15.10;99.90;;;;;;5053901;28;20066;-77
2021/08/31 00:32:54;;;;;;;11.32;10.23;;;15.10;99.90;;;;;;5052360;28;20112;-77
2021/08/31 00:35:19;;;;;;;11.45;10.23;;;15.10;99.90;;;;;;5053245;28;20029;-74
2021/08/31 00:37:45;;;;;;;11.98;10.77;;;15.10;99.90;;;;;;5053637;28;20029;-75
2021/08/31 00:40:11;;;;;;;12.60;11.38;;;15.00;99.90;;;;;;5052167;28;20025;-74
2021/08/31 00:42:37;;;;;;;11.35;10.23;;;15.00;99.90;;;;;;5053216;28;20029;-73
2021/08/31 00:45:03;;;;;;;14.35;11.57;;;15.00;99.90;;;;;;5053448;28;20032;-73
2021/08/31 00:47:28;;;;;;;12.73;11.48;;;15.00;99.90;;;;;;5053462;28;20029;-74
2021/08/31 00:49:54;;;;;;;12.32;11.02;;;15.00;99.90;;;;;;5051582;28;20025;-73
2021/08/31 00:52:20;;;;;;;12.27;11.00;;;15.00;99.90;;;;;;5053187;28;20039;-75
2021/08/31 00:54:46;;;;;;;13.75;12.07;;;15.00;99.90;;;;;;5051853;28;20120;-74
2021/08/31 00:57:14;;;;;;;13.20;11.82;;;14.90;99.90;;;;;;5053058;28;20043;-74
2021/08/31 00:59:40;;;;;;;13.57;12.18;;;14.90;99.90;;;;;;5052804;28;20103;-75
2021/08/31 01:02:05;;;;;;;14.20;12.50;;;14.90;99.90;;;;;;5057800;28;20017;-73
2021/08/31 01:04:32;;;;;;;14.70;12.35;;;14.90;99.90;;;;;;5071671;28;20032;-75
2021/08/31 01:06:58;;;;;;;15.73;13.77;;;14.90;99.90;;;;;;5072985;28;20055;-75
2021/08/31 01:09:25;;;;;;;18.00;14.07;;;14.90;99.90;;;;;;5073025;28;20553;-73
2021/08/31 01:11:53;;;;;;;16.52;14.05;;;14.90;99.90;;;;;;5072408;28;20032;-73
2021/08/31 01:14:19;;;;;;;18.73;14.85;;;15.00;99.90;;;;;;5072843;28;20077;-73
2021/08/31 01:16:46;;;;;;;17.02;14.13;;;14.90;99.90;;;;;;5066298;28;20032;-76
2021/08/31 01:19:12;;;;;;;17.73;14.05;;;14.90;99.90;;;;;;5052729;28;20035;-74
2021/08/31 01:21:38;;;;;;;22.10;15.00;;;14.90;99.90;;;;;;5053161;28;20021;-74
2021/08/31 01:24:04;;;;;;;20.30;15.63;;;15.00;99.90;;;;;;5051757;28;20040;-74
2021/08/31 01:26:30;;;;;;;19.05;15.38;;;15.00;99.90;;;;;;5051615;28;20064;-74
2021/08/31 01:28:57;;;;;;;18.70;13.77;;;15.00;99.90;;;;;;5052677;28;20078;-74
2021/08/31 01:31:23;;;;;;;27.70;15.20;;;15.00;99.90;;;;;;5051231;28;20059;-75
2021/08/31 01:33:48;;;;;;;20.20;15.52;;;15.00;99.90;;;;;;5044462;28;20492;-75
2021/08/31 01:36:18;;;;;;;22.48;15.93;;;15.00;99.90;;;;;;5059206;28;20121;-75
2021/08/31 01:38:45;;;;;;;21.17;15.75;;;14.90;99.90;;;;;;5054182;28;20025;-76
2021/08/31 01:41:11;;;;;;;17.52;15.55;;;14.90;99.90;;;;;;5052103;28;20032;-75
2021/08/31 01:43:37;;;;;;;18.38;15.55;;;14.90;99.90;;;;;;5050874;28;20711;-76
2021/08/31 01:46:03;;;;;;;18.55;14.80;;;14.90;99.90;;;;;;5052290;28;20029;-74
2021/08/31 01:48:28;;;;;;;19.80;17.13;;;14.90;99.90;;;;;;5050422;28;20101;-74
2021/08/31 01:50:54;;;;;;;22.90;17.42;;;14.90;99.90;;;;;;5052254;28;20025;-74
2021/08/31 01:53:19;;;;;;;20.52;16.13;;;14.90;99.90;;;;;;5052258;28;20077;-75
2021/08/31 01:55:45;;;;;;;20.25;16.63;;;14.80;99.90;;;;;;5052163;28;20131;-76
2021/08/31 01:58:11;;;;;;;21.83;18.15;;;14.80;99.90;;;;;;5050836;28;20491;-75
2021/08/31 02:00:37;;;;;;;20.55;18.25;;;14.80;99.90;;;;;;5051869;28;20021;-75
2021/08/31 02:03:03;;;;;;;21.27;17.38;;;14.70;99.90;;;;;;5065689;28;20486;-75
2021/08/31 02:05:28;;;;;;;20.35;16.48;;;14.70;99.90;;;;;;5072128;28;20097;-76
2021/08/31 02:07:54;;;;;;;20.58;15.63;;;14.70;99.90;;;;;;5071995;28;20020;-75
2021/08/31 02:10:20;;;;;;;18.80;16.73;;;14.80;99.90;;;;;;5070831;28;20016;-74
2021/08/31 02:12:45;;;;;;;17.85;14.90;;;14.80;99.90;;;;;;5072130;28;20024;-75
2021/08/31 02:15:11;;;;;;;19.50;16.02;;;14.70;99.90;;;;;;5070740;28;20377;-74
2021/08/31 02:17:37;;;;;;;20.17;16.17;;;14.70;99.90;;;;;;5071838;28;20112;-76
2021/08/31 02:20:03;;;;;;;19.80;16.45;;;14.70;99.90;;;;;;5071722;28;20115;-74
2021/08/31 02:22:29;;;;;;;21.05;16.90;;;14.70;99.90;;;;;;5070509;28;20051;-75
2021/08/31 02:24:54;;;;;;;20.15;16.30;;;14.70;99.90;;;;;;5071720;28;20487;-75
2021/08/31 02:27:20;;;;;;;23.10;15.85;;;14.60;99.90;;;;;;5071650;28;20032;-75
2021/08/31 02:29:45;;;;;;;21.23;16.80;;;14.60;99.90;;;;;;5070252;28;20384;-75
2021/08/31 02:32:11;;;;;;;25.10;17.10;;;14.60;99.90;;;;;;5069385;28;20074;-75
2021/08/31 02:34:36;;;;;;;22.70;16.80;;;14.60;99.90;;;;;;5062935;28;20098;-76
2021/08/31 02:37:02;;;;;;;19.73;16.17;;;14.60;99.90;;;;;;5070467;28;20031;-75
2021/08/31 02:39:27;;;;;;;20.70;15.65;;;14.70;99.90;;;;;;5071322;28;20021;-75
2021/08/31 02:41:53;;;;;;;19.88;16.50;;;14.70;99.90;;;;;;5071609;28;20056;-75
2021/08/31 02:44:19;;;;;;;19.08;15.63;;;14.70;99.90;;;;;;5071552;28;20025;-75
2021/08/31 02:46:44;;;;;;;17.88;15.52;;;14.60;99.90;;;;;;5071694;28;20496;-74
2021/08/31 02:49:10;;;;;;;24.60;17.38;;;14.70;99.90;;;;;;5071380;28;20476;-75
2021/08/31 02:51:35;;;;;;;18.58;15.65;;;14.60;99.90;;;;;;5070061;28;20027;-75
2021/08/31 02:54:01;;;;;;;20.15;16.33;;;14.60;99.90;;;;;;5071629;28;20021;-75
2021/08/31 02:56:26;;;;;;;21.65;17.10;;;14.60;99.90;;;;;;5071515;28;20037;-75
2021/08/31 02:58:52;;;;;;;25.15;16.15;;;14.60;99.90;;;;;;5070202;28;20017;-74
2021/08/31 03:01:33;;;;;;;25.25;16.45;;;14.50;99.90;;;;;;5075083;28;20025;-75
2021/08/31 03:04:00;;;;;;;21.42;16.52;;;14.50;99.90;;;;;;5075477;28;20021;-75
2021/08/31 03:06:26;;;;;;;20.85;17.27;;;14.50;99.90;;;;;;5075216;28;20052;-75
2021/08/31 03:08:52;;;;;;;23.50;16.83;;;14.50;99.90;;;;;;5075151;28;20029;-75
2021/08/31 03:11:18;;;;;;;22.27;16.73;;;14.50;99.90;;;;;;5074984;28;20090;-75
2021/08/31 03:13:43;;;;;;;24.83;16.05;;;14.50;99.90;;;;;;5075187;28;20059;-75
2021/08/31 03:16:09;;;;;;;21.63;16.92;;;14.50;99.90;;;;;;5074926;28;20029;-75
2021/08/31 03:18:35;;;;;;;24.27;17.10;;;14.60;99.90;;;;;;5073712;28;20020;-74
2021/08/31 03:21:00;;;;;;;22.55;16.63;;;14.60;99.90;;;;;;5074790;28;20024;-74
2021/08/31 03:23:26;;;;;;;20.98;16.98;;;14.60;99.90;;;;;;5073642;28;20161;-75
2021/08/31 03:25:52;;;;;;;21.08;17.17;;;14.60;99.90;;;;;;5068157;28;20499;-75
2021/08/31 03:28:18;;;;;;;23.42;17.13;;;14.60;99.90;;;;;;5053311;28;20506;-75
2021/08/31 03:30:43;;;;;;;23.20;18.60;;;14.60;99.90;;;;;;5053232;28;20040;-75
2021/08/31 03:33:09;;;;;;;22.80;17.67;;;14.50;99.90;;;;;;5056618;28;20021;-75
2021/08/31 03:35:34;;;;;;;23.73;18.42;;;14.60;99.90;;;;;;5066442;28;20395;-74
2021/08/31 03:38:00;;;;;;;27.48;18.77;;;14.60;99.90;;;;;;5073347;28;20020;-76
2021/08/31 03:40:26;;;;;;;20.77;17.70;;;14.50;99.90;;;;;;5073205;28;20070;-76
2021/08/31 03:42:51;;;;;;;27.38;18.95;;;14.60;99.90;;;;;;5073221;28;20060;-75
2021/08/31 03:45:17;;;;;;;22.15;18.15;;;14.50;99.90;;;;;;5074418;28;20034;-75
2021/08/31 03:47:43;;;;;;;22.88;18.38;;;14.50;99.90;;;;;;5074453;28;20028;-76
2021/08/31 03:50:09;;;;;;;25.83;19.00;;;14.50;99.90;;;;;;5072983;28;20031;-75
2021/08/31 03:52:34;;;;;;;25.65;19.05;;;14.50;99.90;;;;;;5072962;28;20464;-75
2021/08/31 03:55:00;;;;;;;24.17;17.85;;;14.50;99.90;;;;;;5073026;28;20107;-75
2021/08/31 03:57:25;;;;;;;21.98;18.23;;;14.60;99.90;;;;;;5074360;28;20078;-74
2021/08/31 03:59:51;;;;;;;23.88;19.10;;;14.60;99.90;;;;;;5074086;28;20108;-75
2021/08/31 04:02:17;;;;;;;23.00;18.08;;;14.50;99.90;;;;;;5074174;28;20024;-76
2021/08/31 04:04:43;;;;;;;27.08;17.63;;;14.50;99.90;;;;;;5073046;28;20024;-75
2021/08/31 04:07:08;;;;;;;24.75;18.63;;;14.60;99.90;;;;;;5070939;28;20104;-74
2021/08/31 04:09:34;;;;;;;24.63;18.63;;;14.50;99.90;;;;;;5073949;28;20392;-74
2021/08/31 04:11:59;;;;;;;24.92;19.40;;;14.50;99.90;;;;;;5073646;28;20025;-75
2021/08/31 04:14:25;;;;;;;28.75;19.85;;;14.40;99.90;;;;;;5073904;28;20043;-77
2021/08/31 04:16:50;;;;;;;25.73;18.38;;;14.40;99.90;;;;;;5072771;28;20078;-74
2021/08/31 04:19:17;;;;;;;27.83;19.67;;;14.40;99.90;;;;;;5072522;28;20028;-75
2021/08/31 04:21:42;;;;;;;23.45;19.05;;;14.40;99.90;;;;;;5072606;28;20024;-75
2021/08/31 04:24:08;;;;;;;26.02;20.25;;;14.40;99.90;;;;;;5073741;28;20391;-76
2021/08/31 04:26:34;;;;;;;25.75;19.42;;;14.40;99.90;;;;;;5073667;28;20039;-77
2021/08/31 04:28:59;;;;;;;25.40;18.98;;;14.40;99.90;;;;;;5073463;28;20423;-75
2021/08/31 04:31:25;;;;;;;28.08;19.95;;;14.40;99.90;;;;;;5072625;28;20111;-75
2021/08/31 04:33:51;;;;;;;22.58;18.92;;;14.50;99.90;;;;;;5058444;28;20016;-75
2021/08/31 04:36:17;;;;;;;27.98;19.75;;;14.50;99.90;;;;;;5056772;28;20021;-75
2021/08/31 04:38:43;;;;;;;25.58;19.13;;;14.50;99.90;;;;;;5053479;28;20025;-75
2021/08/31 04:41:09;;;;;;;23.48;18.80;;;14.50;99.90;;;;;;5053478;28;20500;-76
2021/08/31 04:43:34;;;;;;;23.70;17.77;;;14.60;99.90;;;;;;5052102;28;20468;-76
2021/08/31 04:46:00;;;;;;;20.08;16.45;;;14.60;99.90;;;;;;5051780;28;20055;-76
2021/08/31 04:48:25;;;;;;;22.13;17.65;;;14.70;99.90;;;;;;5053400;28;20021;-75
2021/08/31 04:50:51;;;;;;;20.00;15.85;;;14.70;99.90;;;;;;5052996;28;20025;-75
2021/08/31 04:53:16;;;;;;;19.08;15.57;;;14.70;99.90;;;;;;5051878;28;20027;-75
2021/08/31 04:55:43;;;;;;;20.83;16.00;;;14.60;99.90;;;;;;5053154;28;20023;-75
2021/08/31 04:58:09;;;;;;;19.30;15.85;;;14.60;99.90;;;;;;5053167;28;20071;-75
2021/08/31 05:00:34;;;;;;;19.52;17.02;;;14.60;99.90;;;;;;5051549;28;20021;-75
2021/08/31 05:03:00;;;;;;;20.38;15.85;;;14.60;99.90;;;;;;5053313;28;20108;-75
2021/08/31 05:05:25;;;;;;;20.02;16.58;;;14.70;99.90;;;;;;5052955;28;20114;-75
2021/08/31 05:07:51;;;;;;;18.83;15.55;;;14.80;99.90;;;;;;5052915;28;20033;-74
2021/08/31 05:10:17;;;;;;;20.65;16.77;;;14.70;99.90;;;;;;5051315;28;20024;-75
2021/08/31 05:12:42;;;;;;;21.15;16.52;;;14.70;99.90;;;;;;5052818;28;20025;-76
2021/08/31 05:15:08;;;;;;;23.52;16.27;;;14.70;99.90;;;;;;5053162;28;20019;-75
2021/08/31 05:17:35;;;;;;;18.80;16.13;;;14.70;99.90;;;;;;5051592;28;20028;-76
2021/08/31 05:20:05;;;;;;;22.80;17.83;;;14.70;99.90;;;;;;5052623;28;20075;-76
2021/08/31 05:22:31;;;;;;;22.33;16.58;;;14.70;99.90;;;;;;5050619;28;20449;-76
2021/08/31 05:25:00;;;;;;;20.25;17.08;;;14.70;99.90;;;;;;5052648;28;20060;-76
2021/08/31 05:27:26;;;;;;;21.67;17.73;;;14.80;99.90;;;;;;5051202;28;20072;-76
2021/08/31 05:29:51;;;;;;;18.38;16.13;;;14.80;99.90;;;;;;5052451;28;20064;-76
2021/08/31 05:32:18;;;;;;;16.58;14.82;;;14.80;99.90;;;;;;5050182;28;20055;-76
2021/08/31 05:34:43;;;;;;;18.23;15.75;;;14.80;99.90;;;;;;5060657;28;20017;-76
2021/08/31 05:37:09;;;;;;;20.13;15.35;;;14.80;99.90;;;;;;5052150;28;20055;-76
2021/08/31 05:39:34;;;;;;;19.67;14.65;;;14.80;99.90;;;;;;5051103;28;20107;-76
2021/08/31 05:42:02;;;;;;;16.85;14.88;;;14.70;99.90;;;;;;5052478;28;20033;-75
2021/08/31 05:44:27;;;;;;;21.80;15.45;;;14.80;99.90;;;;;;5052288;28;20029;-75
2021/08/31 05:46:53;;;;;;;21.40;14.88;;;14.90;99.90;;;;;;5050963;28;20162;-74
2021/08/31 05:49:18;;;;;;;20.30;14.55;;;14.90;99.90;;;;;;5050956;28;20473;-74
2021/08/31 05:51:44;;;;;;;19.30;15.50;;;14.90;99.90;;;;;;5052222;28;20082;-75
2021/08/31 05:54:09;;;;;;;19.25;14.55;;;15.00;99.90;;;;;;5051079;28;20537;-75
2021/08/31 05:56:35;;;;;;;19.17;14.85;;;15.10;99.90;;;;;;5051085;28;20107;-75
2021/08/31 05:59:00;;;;;;;15.77;14.13;;;15.00;99.90;;;;;;5050787;28;20052;-74
2021/08/31 06:01:26;;;;;;;15.10;13.50;;;15.10;99.90;;;;;;5054745;28;20392;-76
2021/08/31 06:03:52;;;;;;;19.27;14.80;;;15.20;99.90;;;;;;5051990;28;20079;-75
2021/08/31 06:06:17;;;;;;;13.65;12.30;;;15.30;99.90;;;;;;5051890;28;20072;-76
2021/08/31 06:08:43;;;;;;;14.38;12.95;;;15.30;99.90;;;;;;5050567;28;20021;-75
2021/08/31 06:11:08;;;;;;;13.25;11.82;;;15.20;99.90;;;;;;5051638;28;20035;-76
2021/08/31 06:13:34;;;;;;;14.77;12.20;;;15.20;99.90;;;;;;5051805;28;20024;-75
2021/08/31 06:15:59;;;;;;;13.45;12.05;;;15.20;99.90;;;;;;5052091;28;20017;-76
2021/08/31 06:18:25;;;;;;;14.23;11.68;;;15.20;99.90;;;;;;5052081;28;20103;-75
2021/08/31 06:20:51;;;;;;;12.38;11.07;;;15.20;99.90;;;;;;5050582;28;20017;-76
2021/08/31 06:23:17;;;;;;;13.65;12.30;;;15.20;99.90;;;;;;5051825;28;20025;-74
2021/08/31 06:25:42;;;;;;;12.60;11.30;;;15.30;99.90;;;;;;5052042;28;20025;-76
2021/08/31 06:28:08;;;;;;;16.77;11.82;;;15.30;99.90;;;;;;5050109;28;20098;-75
2021/08/31 06:30:33;;;;;;;12.20;10.95;;;15.40;99.90;;;;;;5050769;28;20396;-75
2021/08/31 06:32:59;;;;;;;11.85;10.25;;;15.40;99.90;;;;;;5051585;28;20027;-75
2021/08/31 06:35:25;;;;;;;12.77;10.80;;;15.50;99.90;;;;;;5068144;28;20024;-75
2021/08/31 06:37:50;;;;;;;11.43;9.93;;;15.40;99.90;;;;;;5056971;28;20060;-75
2021/08/31 06:40:16;;;;;;;14.68;10.30;;;15.50;99.90;;;;;;5056602;28;20024;-76
2021/08/31 06:42:41;;;;;;;13.40;10.15;;;15.50;99.90;;;;;;5058310;28;20226;-77
2021/08/31 06:45:07;;;;;;;11.02;9.93;;;15.90;99.90;;;;;;5057024;28;20036;-76
2021/08/31 06:47:33;;;;;;;10.18;9.15;;;16.00;99.90;;;;;;5057012;28;20025;-75
2021/08/31 06:49:59;;;;;;;11.43;8.68;;;16.00;99.90;;;;;;5057990;28;20021;-75
2021/08/31 06:52:24;;;;;;;10.32;9.10;;;16.10;99.90;;;;;;5056936;28;20124;-75
2021/08/31 06:54:50;;;;;;;10.32;9.32;;;16.10;99.90;;;;;;5057970;28;20103;-76
2021/08/31 06:57:15;;;;;;;10.98;8.40;;;16.30;99.90;;;;;;5058360;28;20033;-77
2021/08/31 06:59:41;;;;;;;9.98;8.98;;;16.20;99.90;;;;;;5057943;28;20079;-75
2021/08/31 07:02:06;;;;;;;10.25;8.40;;;16.00;99.90;;;;;;5058167;28;20033;-76
2021/08/31 07:04:32;;;;;;;10.60;8.75;;;15.80;99.90;;;;;;5058576;28;20068;-75
2021/08/31 07:06:58;;;;;;;9.75;8.63;;;15.90;99.90;;;;;;5056839;28;20053;-76
2021/08/31 07:09:26;;;;;;;8.82;7.82;;;15.90;99.90;;;;;;5058103;28;20100;-76
2021/08/31 07:11:51;;;;;;;10.60;8.50;;;16.00;99.90;;;;;;5070959;28;20031;-76
2021/08/31 07:14:17;;;;;;;20.25;8.98;;;15.80;99.90;;;;;;5061328;28;20107;-75
2021/08/31 07:16:45;;;;;;;11.68;8.55;;;15.70;99.90;;;;;;5057694;28;20045;-76
2021/08/31 07:19:11;;;;;;;8.48;7.72;;;15.70;99.90;;;;;;5061019;28;20024;-75
2021/08/31 07:21:40;;;;;;;8.80;7.45;;;15.60;99.90;;;;;;5061028;28;20033;-76
2021/08/31 07:24:05;;;;;;;9.30;7.63;;;15.80;99.90;;;;;;5060176;28;20035;-76
2021/08/31 07:26:31;;;;;;;10.00;7.72;;;15.80;99.90;;;;;;5058630;28;20025;-77
2021/08/31 07:28:59;;;;;;;9.05;7.20;;;15.90;99.90;;;;;;5060696;28;20025;-74
2021/08/31 07:31:24;;;;;;;7.57;6.40;;;16.20;99.90;;;;;;5060503;28;20029;-74
2021/08/31 07:33:53;;;;;;;8.48;6.60;;;16.40;99.90;;;;;;5052862;28;20022;-77
2021/08/31 07:36:21;;;;;;;7.40;6.63;;;16.40;99.90;;;;;;5056489;28;20021;-76
2021/08/31 07:38:55;;;;;;;7.55;6.85;;;16.40;99.90;;;;;;5059684;28;20013;-73
2021/08/31 07:41:21;;;;;;;14.88;7.70;;;16.50;99.90;;;;;;5059159;28;20028;-75
2021/08/31 07:43:46;;;;;;;7.03;6.20;;;16.50;99.90;;;;;;5058578;28;20020;-75
2021/08/31 07:46:12;;;;;;;6.88;6.25;;;16.70;99.90;;;;;;5054417;28;20028;-75
2021/08/31 07:48:38;;;;;;;6.85;6.25;;;17.00;99.90;;;;;;5055054;28;20024;-76
2021/08/31 07:51:04;;;;;;;7.88;6.07;;;17.00;99.90;;;;;;5055627;28;20031;-75
2021/08/31 07:53:33;;;;;;;6.18;5.65;;;16.70;99.90;;;;;;5057351;28;20021;-75
2021/08/31 07:55:58;;;;;;;8.27;6.30;;;16.50;99.90;;;;;;5054909;28;20017;-75
2021/08/31 07:58:24;;;;;;;8.68;6.30;;;16.60;99.90;;;;;;5055596;28;20028;-74
2021/08/31 08:00:50;;;;;;;7.00;6.30;;;17.00;99.90;;;;;;5052184;28;20476;-74
2021/08/31 08:03:15;;;;;;;7.70;6.90;;;16.80;99.90;;;;;;5060168;28;20078;-74
2021/08/31 08:05:41;;;;;;;7.35;6.32;;;17.20;99.90;;;;;;5070675;28;20029;-75
2021/08/31 08:08:07;;;;;;;10.88;6.50;;;17.50;99.90;;;;;;5073329;28;20585;-75
2021/08/31 08:10:32;;;;;;;7.57;6.05;;;17.40;99.90;;;;;;5064593;28;20018;-75
2021/08/31 08:12:58;;;;;;;7.85;7.13;;;17.50;99.90;;;;;;5072398;28;20151;-75
2021/08/31 08:15:24;;;;;;;6.60;6.00;;;17.00;99.90;;;;;;5053371;28;20044;-74
2021/08/31 08:17:50;;;;;;;6.88;6.15;;;16.80;99.90;;;;;;5054323;28;20025;-75
2021/08/31 08:20:16;;;;;;;6.85;6.25;;;16.60;99.90;;;;;;5053058;28;20467;-75
2021/08/31 08:22:44;;;;;;;6.93;6.32;;;16.90;99.90;;;;;;5055431;28;20025;-75
2021/08/31 08:25:13;;;;;;;6.20;5.60;;;16.70;99.90;;;;;;5054307;28;20480;-75
2021/08/31 08:27:40;;;;;;;6.88;6.28;;;16.60;99.90;;;;;;5053898;28;20037;-76
2021/08/31 08:30:11;;;;;;;8.98;6.60;;;16.50;99.90;;;;;;5054149;28;20426;-77
2021/08/31 08:32:37;;;;;;;7.45;6.50;;;16.70;99.90;;;;;;5053858;28;20029;-75
2021/08/31 08:35:04;;;;;;;6.55;5.85;;;16.70;99.90;;;;;;5053721;28;20013;-75
2021/08/31 08:37:30;;;;;;;6.90;5.78;;;17.10;99.90;;;;;;5054045;28;20120;-75
2021/08/31 08:39:55;;;;;;;6.32;5.72;;;17.40;99.90;;;;;;5053881;28;20392;-75
2021/08/31 08:42:21;;;;;;;6.40;5.90;;;17.90;99.90;;;;;;5054234;28;20507;-75
2021/08/31 08:44:47;;;;;;;7.68;5.75;;;18.10;99.90;;;;;;5062149;28;20060;-75
2021/08/31 08:47:14;;;;;;;9.23;5.47;;;17.80;99.90;;;;;;5061379;28;20027;-75
2021/08/31 08:49:43;;;;;;;7.85;5.47;;;17.80;99.90;;;;;;5058096;28;20767;-76
2021/08/31 08:52:09;;;;;;;7.25;5.57;;;18.00;99.90;;;;;;5071382;28;20032;-76
2021/08/31 08:54:35;;;;;;;6.63;5.93;;;18.40;99.90;;;;;;5066405;28;20031;-73
2021/08/31 08:57:00;;;;;;;7.88;6.05;;;18.60;99.90;;;;;;5059039;28;20021;-75
2021/08/31 08:59:26;;;;;;;6.20;5.57;;;18.20;99.90;;;;;;5071940;28;20108;-75
2021/08/31 09:01:54;;;;;;;6.10;5.45;;;18.00;99.90;;;;;;5063158;28;20049;-76
2021/08/31 09:04:50;;;;;;;6.72;5.78;;;17.50;99.90;;;;;;5052992;28;20033;-76
2021/08/31 09:07:26;;;;;;;6.65;5.93;;;17.30;99.90;;;;;;5054174;28;20060;-76
2021/08/31 09:10:17;;;;;;;5.70;5.13;;;17.30;99.90;;;;;;5053336;28;20021;-75
2021/08/31 09:12:46;;;;;;;7.15;6.55;;;17.60;99.90;;;;;;5052617;28;20082;-75
2021/08/31 09:15:28;;;;;;;11.25;6.07;;;17.80;99.90;;;;;;5053706;28;20091;-75
2021/08/31 09:18:06;;;;;;;;;;;17.90;99.90;;;;;;5054123;28;20439;-74
2021/08/31 09:20:51;;;;;;;5.55;4.97;;;18.30;99.90;;;;;;5085295;28;19905;-75
2021/08/31 09:23:29;;;;;;;6.35;5.75;;;18.30;99.90;;;;;;5052683;28;20520;-75
2021/08/31 09:26:00;;;;;;;9.73;5.10;;;18.20;99.90;;;;;;5051603;28;20051;-74
2021/08/31 09:28:29;;;;;;;5.43;4.93;;;18.90;99.90;;;;;;5052797;28;20443;-74
2021/08/31 09:30:58;;;;;;;5.45;4.95;;;18.90;99.90;;;;;;5052550;28;20031;-75
2021/08/31 09:33:27;;;;;;;7.32;5.38;;;19.20;99.90;;;;;;5053911;28;20380;-75
2021/08/31 09:36:11;;;;;;;7.57;5.57;;;19.10;99.90;;;;;;5052351;28;20476;-75
2021/08/31 09:38:46;;;;;;;6.80;5.10;;;19.30;99.90;;;;;;5052804;28;20029;-75
2021/08/31 09:41:32;;;;;;;5.90;4.90;;;18.60;99.90;;;;;;5053430;28;20506;-76
2021/08/31 09:44:24;;;;;;;5.82;5.15;;;18.90;99.90;;;;;;5052142;28;20037;-74
2021/08/31 09:47:02;;;;;;;5.22;4.20;;;18.90;99.90;;;;;;5050770;28;20028;-75
2021/08/31 09:49:33;;;;;;;6.65;5.10;;;19.00;99.90;;;;;;5051148;28;20396;-74
2021/08/31 09:52:09;;;;;;;7.93;5.03;;;18.70;99.90;;;;;;5058831;28;20432;-75
2021/08/31 09:54:46;;;;;;;6.43;4.88;;;18.80;99.90;;;;;;5071540;28;20028;-75
2021/08/31 09:57:25;;;;;;;5.78;5.28;;;18.60;99.90;;;;;;5072217;28;20070;-75
2021/08/31 09:59:51;;;;;;;6.43;4.80;;;18.40;99.90;;;;;;5071553;28;20479;-76
2021/08/31 10:02:17;;;;;;;6.18;4.60;;;18.10;99.90;;;;;;5072415;28;20519;-77
2021/08/31 10:04:43;;;;;;;7.75;4.75;;;18.50;99.90;;;;;;5071887;28;20098;-76
2021/08/31 10:07:11;;;;;;;7.47;5.72;;;18.50;99.90;;;;;;5071774;28;20502;-75
2021/08/31 10:09:38;;;;;;;6.75;5.53;;;18.20;99.90;;;;;;5066992;28;20024;-76
2021/08/31 10:12:07;;;;;;;6.80;6.15;;;18.10;99.90;;;;;;5070338;28;20028;-73
2021/08/31 10:14:33;;;;;;;6.60;5.85;;;18.20;99.90;;;;;;5067755;28;20013;-77
2021/08/31 10:17:00;;;;;;;6.57;4.93;;;18.20;99.90;;;;;;5050288;28;20447;-75
2021/08/31 10:19:26;;;;;;;7.03;4.53;;;18.70;99.90;;;;;;5060694;28;20375;-75
2021/08/31 10:21:51;;;;;;;5.50;4.82;;;19.00;99.90;;;;;;5053915;28;20143;-76
2021/08/31 10:24:17;;;;;;;6.15;4.55;;;19.00;99.90;;;;;;5059092;28;20029;-77
2021/08/31 10:26:44;;;;;;;5.18;4.47;;;19.30;99.90;;;;;;5051808;28;20037;-77
2021/08/31 10:29:13;;;;;;;5.13;3.95;;;19.20;99.90;;;;;;5052804;28;20048;-79
2021/08/31 10:31:40;;;;;;;5.95;4.15;;;19.10;99.90;;;;;;5052906;28;20029;-78
2021/08/31 10:34:31;;;;;;;4.35;3.95;;;18.80;99.90;;;;;;5053245;28;20017;-78
2021/08/31 10:37:00;;;;;;;5.65;4.55;;;18.80;99.90;;;;;;5052168;28;20077;-79
2021/08/31 10:39:46;;;;;;;5.07;4.50;;;19.40;99.90;;;;;;5051710;28;20036;-77
2021/08/31 10:42:32;;;;;;;4.95;4.25;;;19.90;99.90;;;;;;5050248;28;20029;-77
2021/08/31 10:45:04;;;;;;;5.03;4.53;;;19.60;99.90;;;;;;5050046;28;20055;-82
2021/08/31 10:47:34;;;;;;;5.18;4.30;;;19.70;99.90;;;;;;5051872;28;20028;-77
2021/08/31 10:50:00;;;;;;;8.10;4.70;;;19.80;99.90;;;;;;5051414;28;20029;-77
2021/08/31 10:52:31;;;;;;;6.75;4.53;;;19.90;99.90;;;;;;5050736;28;20162;-77
2021/08/31 10:54:57;;;;;;;6.55;4.95;;;19.60;99.90;;;;;;5052739;28;20083;-76
2021/08/31 10:57:35;;;;;;;4.95;4.32;;;20.20;99.90;;;;;;5052597;28;20495;-78
2021/08/31 11:00:16;;;;;;;6.90;4.47;;;20.40;99.90;;;;;;5052778;28;20032;-79
2021/08/31 11:02:48;;;;;;;5.57;5.00;;;20.50;99.90;;;;;;5051463;28;20043;-78
2021/08/31 11:05:26;;;;;;;5.93;4.90;;;20.00;99.90;;;;;;5051876;28;20051;-77
2021/08/31 11:08:13;;;;;;;6.00;4.55;;;19.40;99.90;;;;;;5048242;28;20039;-76
2021/08/31 11:10:43;;;;;;;8.43;6.45;;;19.10;99.90;;;;;;5049756;28;20108;-76
2021/08/31 11:13:10;;;;;;;7.68;5.75;;;19.60;99.90;;;;;;5056094;28;20048;-76
2021/08/31 11:15:36;;;;;;;5.82;5.32;;;19.90;99.90;;;;;;5053052;28;20079;-76
2021/08/31 11:18:06;;;;;;;5.57;5.03;;;19.40;99.90;;;;;;5051218;28;20029;-77
2021/08/31 11:20:33;;;;;;;7.88;5.43;;;19.10;99.90;;;;;;5051959;28;20057;-77
2021/08/31 11:23:09;;;;;;;7.88;5.40;;;19.20;99.90;;;;;;5054063;28;20499;-77
2021/08/31 11:25:39;;;;;;;5.28;4.78;;;19.40;99.90;;;;;;5053728;28;20036;-77
2021/08/31 11:28:11;;;;;;;6.10;5.25;;;19.40;99.90;;;;;;5054741;28;20431;-76
2021/08/31 11:30:54;;;;;;;5.97;4.55;;;19.60;99.90;;;;;;5053741;28;20052;-77
2021/08/31 11:33:33;;;;;;;5.55;5.05;;;19.90;99.90;;;;;;5054620;28;20052;-77
2021/08/31 11:36:07;;;;;;;4.90;4.45;;;20.30;99.90;;;;;;5055094;28;20063;-76
2021/08/31 11:38:42;;;;;;;5.82;5.32;;;20.00;99.90;;;;;;5054863;28;20032;-76
2021/08/31 11:41:27;;;;;;;4.88;4.38;;;19.80;99.90;;;;;;5066502;28;20032;-76
2021/08/31 11:43:57;;;;;;;5.95;5.35;;;20.10;99.90;;;;;;5037941;28;20043;-77
2021/08/31 11:46:24;;;;;;;5.50;5.00;;;19.60;99.90;;;;;;5055910;28;20028;-77
2021/08/31 11:49:10;;;;;;;5.78;4.65;;;19.50;99.90;;;;;;5057198;28;20108;-76
2021/08/31 11:51:36;;;;;;;5.55;4.90;;;19.70;99.90;;;;;;5074722;28;20099;-76
2021/08/31 11:54:06;;;;;;;5.78;4.60;;;20.10;99.90;;;;;;5054674;28;20025;-76
2021/08/31 11:56:33;;;;;;;5.50;4.50;;;19.80;99.90;;;;;;5054650;28;20021;-76
2021/08/31 11:58:58;;;;;;;5.47;4.68;;;19.90;99.90;;;;;;5054377;28;20040;-76
2021/08/31 12:01:29;;;;;;;5.22;4.72;;;19.70;99.90;;;;;;5054451;28;20037;-76
2021/08/31 12:03:55;;;;;;;;;;;19.50;99.90;;;;;;5055083;28;20028;-76
2021/08/31 12:06:23;;;;;;;4.25;3.85;;;19.30;99.90;;;;;;5054068;28;19909;-76
2021/08/31 12:08:49;;;;;;;6.57;3.92;;;19.40;99.90;;;;;;5055673;28;20029;-76
2021/08/31 12:11:15;;;;;;;4.47;4.07;;;19.40;99.90;;;;;;5052657;28;20114;-78
2021/08/31 12:13:43;;;;;;;5.00;4.50;;;20.00;99.90;;;;;;5054643;28;20052;-76
2021/08/31 12:16:11;;;;;;;4.90;4.30;;;20.40;99.90;;;;;;5053215;28;20021;-76
2021/08/31 12:18:37;;;;;;;3.90;3.60;;;20.20;99.90;;;;;;5054149;28;20029;-76
2021/08/31 12:21:23;;;;;;;3.97;3.58;;;20.10;99.90;;;;;;5052588;28;20033;-77
2021/08/31 12:23:51;;;;;;;6.82;4.07;;;20.30;99.90;;;;;;5054322;28;20021;-77
2021/08/31 12:26:28;;;;;;;7.80;4.97;;;20.00;99.90;;;;;;5054507;28;20017;-78
2021/08/31 12:29:06;;;;;;;4.78;4.30;;;19.90;99.90;;;;;;5052785;28;20049;-76
2021/08/31 12:31:32;;;;;;;6.05;4.18;;;19.90;99.90;;;;;;5052094;28;20032;-77
2021/08/31 12:33:58;;;;;;;4.20;3.83;;;20.10;99.90;;;;;;5053029;28;20033;-77
2021/08/31 12:36:32;;;;;;;4.50;3.90;;;20.20;99.90;;;;;;5054007;28;20098;-77
2021/08/31 12:38:59;;;;;;;4.40;4.00;;;20.40;99.90;;;;;;5053822;28;20032;-77